Franzen, Wisconsin
Current Conditions -  °F | °C
As of 8:35 PM on Wednesday 22 Oct 2014 (Local Time) from KAIG Reporting Station
Clear Clear  
Wind Chill: 34°   Ceiling: Unl
Heat Index: 39°   Visibility: 10mi
Dew Point: 35°   Wind: 8mph
Humidity: 83%   Direction: 160°SSE
Pressure: 30.21"   Gusts: NA
Location:  44.8179°N, 89.172°W
Report Text: KAIG 230135Z AUTO 16007KT 10SM CLR 04/02 A3021 RMK AO2 T00410015
Loading
Personal Weather Stations






























Interactive Weather Map New forecast layout! Learn more

10-Day Weather Forecast

Advertisements
Track Severe Weather on mobile